createdAt,value
2023-08-19T00:00:31.987Z,3.42
2023-08-19T00:02:59.476Z,3.25
2023-08-19T00:05:27.012Z,3.13
2023-08-19T00:07:54.492Z,3.00
2023-08-19T00:10:21.943Z,3.15
2023-08-19T00:12:49.432Z,3.53
2023-08-19T00:15:16.847Z,3.17
2023-08-19T00:17:44.344Z,3.67
2023-08-19T00:20:14.949Z,3.17
2023-08-19T00:22:42.407Z,3.70
2023-08-19T00:25:09.990Z,3.67
2023-08-19T00:27:37.423Z,2.80
2023-08-19T00:30:04.985Z,3.50
2023-08-19T00:32:32.769Z,3.22
2023-08-19T00:35:00.204Z,3.25
2023-08-19T00:37:27.678Z,3.60
2023-08-19T00:39:55.095Z,3.33
2023-08-19T00:42:22.496Z,3.38
2023-08-19T00:44:49.910Z,3.25
2023-08-19T00:47:17.572Z,3.72
2023-08-19T00:49:45.186Z,3.28
2023-08-19T00:52:15.497Z,3.30
2023-08-19T00:54:43.062Z,3.20
2023-08-19T00:57:10.539Z,3.05
2023-08-19T00:59:38.057Z,2.60
2023-08-19T01:02:05.885Z,2.90
2023-08-19T01:04:33.327Z,3.60
2023-08-19T01:07:00.745Z,3.17
2023-08-19T01:09:31.538Z,3.15
2023-08-19T01:12:14.155Z,3.20
2023-08-19T01:14:41.541Z,3.38
2023-08-19T01:17:12.404Z,3.70
2023-08-19T01:19:42.834Z,4.20
2023-08-19T01:22:12.367Z,3.20
2023-08-19T01:24:40.281Z,3.33
2023-08-19T01:27:08.706Z,3.28
2023-08-19T01:29:36.127Z,2.97
2023-08-19T01:32:04.580Z,3.67
2023-08-19T01:34:32.285Z,2.90
2023-08-19T01:37:03.615Z,3.17
2023-08-19T01:39:31.647Z,3.13
2023-08-19T01:41:59.493Z,3.00
2023-08-19T01:44:27.095Z,3.20
2023-08-19T01:46:55.251Z,3.28
2023-08-19T01:49:23.794Z,3.83
2023-08-19T01:51:51.974Z,3.40
2023-08-19T01:54:19.483Z,3.35
2023-08-19T01:56:46.931Z,3.00
2023-08-19T01:59:14.287Z,3.30
2023-08-19T02:01:41.834Z,3.28
2023-08-19T02:04:09.246Z,3.47
2023-08-19T02:06:36.737Z,2.97
2023-08-19T02:09:04.128Z,3.35
2023-08-19T02:11:31.567Z,3.75
2023-08-19T02:13:58.969Z,3.33
2023-08-19T02:16:26.444Z,2.92
2023-08-19T02:18:53.865Z,2.67
2023-08-19T02:21:21.401Z,2.92
2023-08-19T02:23:48.791Z,2.78
2023-08-19T02:26:16.243Z,3.20
2023-08-19T02:28:43.645Z,3.10
2023-08-19T02:31:11.132Z,3.15
2023-08-19T02:33:39.802Z,3.10
2023-08-19T02:36:07.413Z,3.88
2023-08-19T02:38:34.966Z,3.60
2023-08-19T02:41:02.451Z,3.00
2023-08-19T02:43:29.849Z,3.35
2023-08-19T02:45:59.243Z,2.90
2023-08-19T02:48:26.739Z,3.78
2023-08-19T02:50:57.447Z,3.28
2023-08-19T02:53:25.027Z,3.30
2023-08-19T02:55:55.521Z,3.28
2023-08-19T02:58:23.263Z,3.70
2023-08-19T03:00:50.760Z,3.35
2023-08-19T03:03:18.662Z,3.17
2023-08-19T03:05:46.347Z,3.38
2023-08-19T03:08:16.169Z,3.33
2023-08-19T03:10:43.743Z,3.47
2023-08-19T03:13:11.142Z,3.50
2023-08-19T03:15:40.019Z,3.33
2023-08-19T03:18:07.631Z,3.53
2023-08-19T03:20:35.291Z,3.42
2023-08-19T03:23:02.738Z,3.35
2023-08-19T03:25:30.252Z,3.22
2023-08-19T03:27:57.810Z,3.45
2023-08-19T03:30:25.310Z,3.22
2023-08-19T03:32:52.838Z,3.25
2023-08-19T03:35:20.687Z,3.13
2023-08-19T03:37:48.085Z,3.08
2023-08-19T03:40:18.660Z,3.40
2023-08-19T03:42:46.083Z,3.08
2023-08-19T03:45:13.565Z,3.25
2023-08-19T03:47:41.075Z,2.85
2023-08-19T03:50:08.813Z,2.90
2023-08-19T03:52:36.303Z,3.67
2023-08-19T03:55:03.979Z,3.17
2023-08-19T03:57:31.979Z,2.70
2023-08-19T03:59:59.573Z,3.72
2023-08-19T04:02:27.022Z,3.33
2023-08-19T04:05:01.520Z,3.33
2023-08-19T04:07:29.203Z,3.50
2023-08-19T04:09:57.402Z,2.95
2023-08-19T04:12:25.586Z,3.10
2023-08-19T04:14:53.598Z,2.90
2023-08-19T04:17:21.124Z,3.50
2023-08-19T04:19:48.793Z,3.28
2023-08-19T04:22:16.849Z,3.08
2023-08-19T04:24:44.645Z,3.55
2023-08-19T04:27:12.082Z,3.75
2023-08-19T04:29:39.575Z,3.85
2023-08-19T04:32:07.088Z,3.13
2023-08-19T04:34:35.037Z,3.17
2023-08-19T04:37:02.590Z,3.28
2023-08-19T04:39:29.970Z,3.30
2023-08-19T04:42:00.321Z,3.20
2023-08-19T04:44:28.386Z,3.28
2023-08-19T04:46:55.807Z,3.00
2023-08-19T04:49:23.280Z,3.25
2023-08-19T04:51:50.748Z,3.83
2023-08-19T04:54:18.243Z,3.60
2023-08-19T04:56:45.732Z,3.10
2023-08-19T04:59:13.345Z,3.28
2023-08-19T05:01:40.792Z,3.33
2023-08-19T05:04:08.390Z,3.05
2023-08-19T05:06:35.886Z,2.95
2023-08-19T05:09:04.064Z,2.92
2023-08-19T05:11:31.738Z,3.60
2023-08-19T05:13:59.244Z,3.38
2023-08-19T05:16:27.211Z,3.10
2023-08-19T05:19:05.332Z,3.22
2023-08-19T05:21:32.776Z,3.10
2023-08-19T05:24:00.413Z,3.30
2023-08-19T05:26:27.837Z,3.20
2023-08-19T05:28:55.326Z,3.05
2023-08-19T05:31:22.892Z,3.45
2023-08-19T05:33:50.448Z,3.15
2023-08-19T05:36:20.130Z,3.47
2023-08-19T05:38:47.604Z,3.13
2023-08-19T05:41:15.091Z,3.42
2023-08-19T05:43:42.604Z,3.40
2023-08-19T05:46:10.131Z,3.72
2023-08-19T05:48:37.795Z,3.60
2023-08-19T05:51:05.444Z,3.55
2023-08-19T05:53:33.034Z,3.00
2023-08-19T05:56:00.548Z,3.58
2023-08-19T05:58:28.019Z,3.55
2023-08-19T06:01:04.462Z,3.22
2023-08-19T06:03:32.174Z,2.97
2023-08-19T06:06:04.325Z,3.88
2023-08-19T06:08:31.819Z,3.53
2023-08-19T06:11:01.590Z,2.92
2023-08-19T06:13:28.965Z,3.10
2023-08-19T06:15:56.549Z,2.90
2023-08-19T06:18:24.278Z,3.20
2023-08-19T06:20:51.974Z,3.13
2023-08-19T06:23:20.047Z,3.40
2023-08-19T06:25:51.407Z,2.90
2023-08-19T06:28:21.562Z,3.30
2023-08-19T06:30:49.738Z,3.05
2023-08-19T06:33:17.702Z,3.25
2023-08-19T06:35:49.403Z,3.45
2023-08-19T06:38:21.423Z,3.08
2023-08-19T06:40:55.484Z,3.28
2023-08-19T06:43:23.458Z,3.45
2023-08-19T06:45:51.163Z,3.17
2023-08-19T06:48:21.883Z,3.30
2023-08-19T06:50:49.481Z,3.47
2023-08-19T06:53:17.106Z,3.85
2023-08-19T06:55:47.682Z,3.25
2023-08-19T06:58:18.539Z,3.25
2023-08-19T07:00:46.801Z,3.50
2023-08-19T07:03:14.722Z,3.15
2023-08-19T07:05:42.842Z,3.45
2023-08-19T07:08:11.965Z,3.50
2023-08-19T07:10:39.649Z,3.47
2023-08-19T07:13:07.565Z,3.22
2023-08-19T07:15:35.967Z,3.35
2023-08-19T07:18:04.706Z,3.47
2023-08-19T07:20:32.285Z,3.50
2023-08-19T07:23:02.008Z,3.35
2023-08-19T07:25:29.666Z,3.45
2023-08-19T07:27:57.326Z,3.67
2023-08-19T07:30:25.092Z,3.30
2023-08-19T07:32:52.711Z,3.55
2023-08-19T07:35:20.364Z,3.15
2023-08-19T07:37:47.892Z,3.00
2023-08-19T07:40:15.337Z,3.60
2023-08-19T07:42:42.834Z,2.97
2023-08-19T07:45:11.084Z,3.72
2023-08-19T07:47:38.546Z,3.20
2023-08-19T07:50:06.290Z,3.53
2023-08-19T07:52:33.777Z,3.45
2023-08-19T07:55:01.243Z,2.88
2023-08-19T07:57:29.204Z,3.67
2023-08-19T07:59:56.609Z,3.35
2023-08-19T08:02:25.691Z,3.22
2023-08-19T08:04:55.214Z,3.75
2023-08-19T08:07:23.167Z,3.40
2023-08-19T08:09:50.591Z,3.42
2023-08-19T08:12:18.166Z,3.35
2023-08-19T08:14:45.657Z,3.58
2023-08-19T08:17:13.128Z,2.80
2023-08-19T08:19:40.583Z,3.05
2023-08-19T08:22:08.006Z,2.63
2023-08-19T08:24:35.450Z,2.78
2023-08-19T08:27:03.771Z,3.35
2023-08-19T08:29:31.197Z,3.25
2023-08-19T08:31:58.728Z,3.80
2023-08-19T08:34:27.168Z,2.70
2023-08-19T08:36:54.528Z,2.88
2023-08-19T08:39:21.985Z,3.00
2023-08-19T08:41:49.911Z,3.40
2023-08-19T08:44:17.730Z,2.80
2023-08-19T08:46:46.931Z,3.15
2023-08-19T08:49:14.595Z,3.03
2023-08-19T08:51:43.657Z,3.10
2023-08-19T08:54:12.067Z,2.97
2023-08-19T08:56:39.465Z,3.13
2023-08-19T08:59:07.358Z,3.33
2023-08-19T09:01:36.311Z,3.10
2023-08-19T09:04:06.165Z,2.65
2023-08-19T09:06:34.322Z,3.03
2023-08-19T09:09:05.525Z,3.40
2023-08-19T09:11:37.694Z,2.92
2023-08-19T09:14:23.753Z,3.10
2023-08-19T09:16:51.606Z,3.20
2023-08-19T09:19:19.128Z,3.20
2023-08-19T09:21:46.669Z,3.05
2023-08-19T09:24:17.724Z,2.60
2023-08-19T09:26:46.050Z,2.67
2023-08-19T09:29:14.121Z,3.05
2023-08-19T09:31:41.560Z,2.80
2023-08-19T09:34:09.048Z,3.22
2023-08-19T09:36:36.444Z,2.85
2023-08-19T09:39:04.446Z,3.00
2023-08-19T09:41:32.009Z,2.67
2023-08-19T09:43:59.527Z,2.42
2023-08-19T09:46:36.533Z,2.65
2023-08-19T09:49:05.324Z,2.60
2023-08-19T09:51:33.378Z,2.95
2023-08-19T09:54:13.253Z,2.55
2023-08-19T09:56:40.853Z,3.10
2023-08-19T09:59:08.535Z,2.55
2023-08-19T10:01:37.908Z,3.05
2023-08-19T10:04:05.597Z,2.67
2023-08-19T10:06:35.444Z,2.88
2023-08-19T10:09:05.946Z,2.58
2023-08-19T10:11:33.803Z,2.80
2023-08-19T10:14:05.733Z,2.53
2023-08-19T10:16:34.626Z,2.60
2023-08-19T10:19:02.616Z,2.55
2023-08-19T10:21:32.164Z,2.88
2023-08-19T10:24:00.174Z,3.17
2023-08-19T10:26:27.799Z,2.38
2023-08-19T10:29:05.896Z,2.85
2023-08-19T10:31:33.803Z,2.60
2023-08-19T10:34:01.321Z,2.35
2023-08-19T10:36:33.921Z,2.15
2023-08-19T10:39:02.005Z,2.45
2023-08-19T10:41:29.569Z,2.40
2023-08-19T10:43:57.960Z,1.90
2023-08-19T10:46:28.474Z,2.25
2023-08-19T10:48:56.042Z,2.30
2023-08-19T10:51:43.481Z,2.90
2023-08-19T10:54:10.919Z,2.35
2023-08-19T10:56:38.404Z,2.42
2023-08-19T10:59:05.963Z,2.47
2023-08-19T11:01:33.652Z,2.70
2023-08-19T11:04:01.554Z,2.53
2023-08-19T11:06:32.165Z,2.33
2023-08-19T11:09:02.765Z,2.20
2023-08-19T11:11:30.162Z,2.75
2023-08-19T11:13:57.604Z,2.28
2023-08-19T11:16:31.187Z,2.22
2023-08-19T11:18:58.844Z,2.50
2023-08-19T11:21:26.243Z,2.50
2023-08-19T11:23:53.729Z,2.30
2023-08-19T11:26:21.644Z,2.45
2023-08-19T11:28:50.446Z,2.78
2023-08-19T11:31:17.964Z,2.45
2023-08-19T11:33:45.566Z,2.20
2023-08-19T11:36:13.093Z,2.50
2023-08-19T11:38:40.524Z,2.80
2023-08-19T11:41:08.042Z,2.55
2023-08-19T11:43:46.117Z,2.67
2023-08-19T11:46:13.895Z,2.60
2023-08-19T11:48:41.603Z,2.58
2023-08-19T11:51:12.524Z,2.40
2023-08-19T11:53:40.806Z,2.97
2023-08-19T11:56:08.404Z,2.78
2023-08-19T11:58:54.604Z,2.50
2023-08-19T12:01:22.864Z,2.40
2023-08-19T12:03:51.245Z,2.63
2023-08-19T12:06:19.168Z,2.50
2023-08-19T12:08:48.703Z,2.40
2023-08-19T12:11:25.252Z,2.30
2023-08-19T12:13:53.594Z,2.63
2023-08-19T12:16:21.350Z,2.28
2023-08-19T12:18:49.105Z,2.33
2023-08-19T12:21:16.565Z,2.45
2023-08-19T12:23:43.966Z,2.45
2023-08-19T12:26:11.400Z,2.35
2023-08-19T12:28:38.974Z,2.10
2023-08-19T12:31:06.404Z,1.98
2023-08-19T12:33:34.051Z,2.35
2023-08-19T12:36:17.182Z,2.50
2023-08-19T12:38:46.847Z,2.22
2023-08-19T12:41:14.698Z,2.30
2023-08-19T12:43:42.298Z,2.70
2023-08-19T12:46:09.900Z,2.28
2023-08-19T12:48:37.405Z,2.90
2023-08-19T12:51:05.099Z,2.65
2023-08-19T12:53:32.525Z,2.38
2023-08-19T12:55:59.991Z,2.47
2023-08-19T12:58:27.575Z,2.60
2023-08-19T13:00:55.051Z,2.47
2023-08-19T13:03:22.639Z,2.33
2023-08-19T13:05:50.207Z,2.25
2023-08-19T13:08:17.655Z,2.40
2023-08-19T13:10:45.098Z,2.10
2023-08-19T13:13:12.534Z,2.42
2023-08-19T13:15:40.130Z,2.10
2023-08-19T13:18:07.799Z,2.25
2023-08-19T13:20:35.278Z,2.38
2023-08-19T13:23:02.734Z,2.42
2023-08-19T13:25:30.165Z,2.63
2023-08-19T13:27:57.670Z,2.20
2023-08-19T13:30:25.119Z,2.03
2023-08-19T13:32:52.637Z,2.10
2023-08-19T13:35:20.394Z,2.10
2023-08-19T13:37:47.925Z,2.22
2023-08-19T13:40:15.332Z,2.25
2023-08-19T13:42:42.787Z,2.17
2023-08-19T13:45:10.406Z,2.35
2023-08-19T13:47:38.190Z,1.90
2023-08-19T13:50:07.176Z,2.03
2023-08-19T13:52:41.587Z,1.73
2023-08-19T13:55:09.721Z,2.05
2023-08-19T13:57:38.375Z,2.22
2023-08-19T14:00:12.868Z,1.88
2023-08-19T14:02:41.537Z,1.88
2023-08-19T14:05:10.733Z,1.77
2023-08-19T14:07:38.368Z,1.77
2023-08-19T14:10:06.211Z,1.90
2023-08-19T14:12:35.337Z,2.00
2023-08-19T14:15:03.175Z,1.95
2023-08-19T14:17:30.728Z,1.92
2023-08-19T14:19:58.166Z,1.75
2023-08-19T14:22:25.612Z,1.85
2023-08-19T14:24:53.102Z,1.80
2023-08-19T14:27:20.930Z,1.90
2023-08-19T14:29:48.410Z,1.67
2023-08-19T14:32:16.065Z,2.00
2023-08-19T14:34:43.527Z,1.60
2023-08-19T14:37:11.002Z,1.63
2023-08-19T14:39:38.461Z,1.95
2023-08-19T14:42:05.885Z,2.00
2023-08-19T14:44:36.929Z,1.83
2023-08-19T14:47:07.090Z,1.92
2023-08-19T14:49:34.565Z,1.70
2023-08-19T14:52:02.860Z,1.88
2023-08-19T14:54:30.685Z,1.90
2023-08-19T14:56:58.090Z,1.98
2023-08-19T14:59:25.568Z,1.83
2023-08-19T15:01:55.968Z,1.65
2023-08-19T15:04:23.803Z,2.30
2023-08-19T15:06:51.400Z,1.80
2023-08-19T15:09:18.816Z,1.80
2023-08-19T15:11:46.261Z,1.88
2023-08-19T15:14:13.774Z,2.10
2023-08-19T15:16:41.315Z,1.70
2023-08-19T15:19:08.846Z,1.88
2023-08-19T15:21:36.763Z,2.00
2023-08-19T15:24:05.567Z,2.20
2023-08-19T15:26:33.124Z,2.15
2023-08-19T15:29:00.549Z,2.28
2023-08-19T15:31:33.824Z,2.30
2023-08-19T15:34:05.010Z,2.67
2023-08-19T15:36:35.189Z,2.38
2023-08-19T15:39:02.627Z,2.33
2023-08-19T15:41:31.603Z,2.72
2023-08-19T15:44:01.196Z,2.60
2023-08-19T15:46:28.846Z,3.08
2023-08-19T15:48:56.249Z,2.20
2023-08-19T15:51:23.734Z,2.67
2023-08-19T15:53:51.711Z,2.55
2023-08-19T15:56:20.381Z,2.50
2023-08-19T15:58:48.256Z,2.70
2023-08-19T16:01:15.693Z,2.90
2023-08-19T16:03:43.124Z,2.72
2023-08-19T16:06:10.527Z,2.72
2023-08-19T16:08:38.086Z,2.50
2023-08-19T16:11:09.244Z,2.70
2023-08-19T16:13:36.919Z,2.70
2023-08-19T16:16:05.587Z,2.97
2023-08-19T16:18:35.253Z,2.90
2023-08-19T16:21:03.881Z,3.28
2023-08-19T16:23:31.734Z,2.80
2023-08-19T16:25:59.537Z,2.47
2023-08-19T16:28:27.043Z,2.58
2023-08-19T16:30:54.576Z,2.67
2023-08-19T16:33:22.530Z,2.53
2023-08-19T16:35:55.484Z,2.55
2023-08-19T16:38:22.934Z,2.83
2023-08-19T16:40:53.008Z,2.75
2023-08-19T16:43:20.489Z,3.25
2023-08-19T16:45:54.987Z,2.63
2023-08-19T16:48:22.773Z,2.88
2023-08-19T16:50:50.403Z,2.90
2023-08-19T16:53:18.091Z,2.47
2023-08-19T16:55:54.874Z,2.80
2023-08-19T16:58:23.125Z,2.72
2023-08-19T17:01:19.870Z,2.58
2023-08-19T17:03:47.598Z,3.13
2023-08-19T17:06:16.925Z,2.70
2023-08-19T17:08:45.335Z,2.50
2023-08-19T17:11:12.847Z,2.65
2023-08-19T17:13:40.331Z,2.85
2023-08-19T17:16:07.826Z,2.70
2023-08-19T17:18:36.030Z,3.22
2023-08-19T17:21:03.966Z,3.03
2023-08-19T17:23:31.422Z,2.67
2023-08-19T17:25:59.167Z,2.22
2023-08-19T17:28:26.565Z,2.70
2023-08-19T17:31:06.475Z,2.63
2023-08-19T17:33:34.288Z,2.83
2023-08-19T17:36:02.443Z,2.63
2023-08-19T17:38:30.327Z,2.65
2023-08-19T17:40:58.449Z,2.70
2023-08-19T17:43:25.974Z,2.80
2023-08-19T17:45:55.146Z,2.70
2023-08-19T17:48:23.363Z,2.85
2023-08-19T17:50:51.420Z,3.42
2023-08-19T17:53:19.409Z,2.67
2023-08-19T17:55:46.833Z,3.17
2023-08-19T17:58:14.275Z,2.50
2023-08-19T18:00:43.789Z,2.90
2023-08-19T18:03:11.882Z,2.60
2023-08-19T18:05:39.641Z,2.88
2023-08-19T18:08:10.265Z,2.53
2023-08-19T18:10:37.762Z,2.60
2023-08-19T18:13:05.350Z,3.60
2023-08-19T18:15:32.969Z,3.15
2023-08-19T18:18:00.423Z,2.88
2023-08-19T18:20:27.970Z,2.90
2023-08-19T18:22:55.413Z,2.92
2023-08-19T18:25:22.875Z,3.25
2023-08-19T18:27:53.168Z,3.38
2023-08-19T18:30:20.844Z,3.38
2023-08-19T18:32:50.481Z,3.22
2023-08-19T18:35:19.410Z,3.00
2023-08-19T18:37:47.172Z,3.15
2023-08-19T18:40:15.853Z,2.95
2023-08-19T18:42:44.053Z,3.25
2023-08-19T18:45:15.183Z,2.95
2023-08-19T18:48:06.059Z,3.20
2023-08-19T18:50:34.720Z,3.60
2023-08-19T18:53:02.595Z,3.53
2023-08-19T18:55:31.023Z,3.40
2023-08-19T18:57:58.531Z,3.22
2023-08-19T19:00:26.169Z,3.67
2023-08-19T19:02:54.358Z,3.50
2023-08-19T19:05:22.438Z,2.90
2023-08-19T19:07:50.212Z,3.15
2023-08-19T19:10:18.417Z,3.40
2023-08-19T19:12:48.130Z,3.50
2023-08-19T19:15:17.360Z,3.00
2023-08-19T19:17:49.099Z,3.67
2023-08-19T19:20:18.055Z,3.03
2023-08-19T19:22:45.972Z,3.20
2023-08-19T19:25:13.887Z,3.20
2023-08-19T19:27:41.937Z,3.30
2023-08-19T19:30:10.770Z,3.00
2023-08-19T19:32:41.580Z,3.20
2023-08-19T19:35:10.077Z,3.30
2023-08-19T19:37:37.899Z,3.45
2023-08-19T19:40:05.727Z,3.60
2023-08-19T19:42:33.128Z,3.30
2023-08-19T19:45:00.727Z,3.13
2023-08-19T19:47:28.732Z,3.38
2023-08-19T19:49:56.217Z,3.53
2023-08-19T19:52:23.778Z,3.50
2023-08-19T19:54:52.362Z,3.60
2023-08-19T19:57:20.284Z,3.10
2023-08-19T19:59:47.849Z,2.88
2023-08-19T20:02:15.267Z,3.15
2023-08-19T20:04:45.730Z,3.08
2023-08-19T20:07:13.151Z,3.80
2023-08-19T20:09:40.625Z,3.40
2023-08-19T20:12:08.409Z,3.50
2023-08-19T20:14:35.892Z,3.53
2023-08-19T20:17:03.329Z,3.60
2023-08-19T20:19:32.718Z,3.63
2023-08-19T20:22:01.750Z,3.60
2023-08-19T20:24:29.204Z,3.72
2023-08-19T20:26:57.031Z,4.00
2023-08-19T20:29:24.688Z,3.83
2023-08-19T20:31:53.050Z,4.05
2023-08-19T20:34:20.526Z,3.65
2023-08-19T20:36:48.036Z,3.75
2023-08-19T20:39:16.301Z,3.92
2023-08-19T20:41:43.891Z,3.60
2023-08-19T20:44:12.050Z,3.40
2023-08-19T20:46:39.888Z,3.72
2023-08-19T20:49:08.541Z,3.88
2023-08-19T20:51:36.006Z,4.15
2023-08-19T20:54:04.525Z,3.78
2023-08-19T20:56:32.292Z,3.80
2023-08-19T20:58:59.962Z,3.30
2023-08-19T21:01:28.660Z,3.72
2023-08-19T21:03:56.301Z,4.22
2023-08-19T21:06:23.888Z,3.97
2023-08-19T21:08:51.331Z,3.28
2023-08-19T21:11:18.809Z,3.50
2023-08-19T21:13:46.526Z,3.70
2023-08-19T21:16:13.991Z,3.40
2023-08-19T21:18:41.521Z,3.85
2023-08-19T21:21:08.971Z,3.78
2023-08-19T21:23:36.948Z,3.35
2023-08-19T21:26:05.051Z,3.53
2023-08-19T21:28:34.607Z,3.40
2023-08-19T21:31:02.284Z,3.10
2023-08-19T21:33:29.974Z,3.33
2023-08-19T21:35:57.770Z,3.95
2023-08-19T21:38:25.348Z,4.00
2023-08-19T21:40:59.734Z,3.50
2023-08-19T21:43:27.286Z,3.95
2023-08-19T21:45:58.923Z,4.03
2023-08-19T21:48:27.001Z,3.95
2023-08-19T21:50:54.934Z,3.53
2023-08-19T21:53:22.378Z,4.13
2023-08-19T21:55:49.964Z,3.63
2023-08-19T21:58:17.405Z,3.85
2023-08-19T22:00:47.731Z,3.60
2023-08-19T22:03:15.311Z,4.00
2023-08-19T22:05:46.605Z,3.75
2023-08-19T22:08:15.207Z,3.95
2023-08-19T22:10:43.008Z,3.85
2023-08-19T22:13:10.734Z,4.25
2023-08-19T22:15:38.449Z,3.67
2023-08-19T22:18:06.746Z,3.85
2023-08-19T22:23:04.726Z,3.83
2023-08-19T22:25:32.243Z,3.35
2023-08-19T22:27:59.911Z,3.67
2023-08-19T22:30:27.447Z,3.58
2023-08-19T22:32:54.874Z,3.55
2023-08-19T22:35:22.431Z,3.53
2023-08-19T22:37:49.966Z,3.60
2023-08-19T22:40:17.805Z,3.30
2023-08-19T22:42:45.216Z,3.20
2023-08-19T22:45:13.132Z,3.08
2023-08-19T22:47:42.803Z,3.60
2023-08-19T22:50:12.528Z,3.42
2023-08-19T22:52:39.938Z,3.75
2023-08-19T22:55:09.807Z,3.70
2023-08-19T22:57:37.393Z,3.83
2023-08-19T23:00:05.479Z,3.55
2023-08-19T23:02:33.012Z,3.70
2023-08-19T23:05:01.022Z,3.90
2023-08-19T23:07:28.511Z,3.42
2023-08-19T23:09:56.033Z,4.07
2023-08-19T23:12:23.604Z,3.80
2023-08-19T23:14:51.058Z,3.70
2023-08-19T23:17:18.480Z,3.75
2023-08-19T23:19:45.921Z,3.78
2023-08-19T23:22:13.377Z,3.70
2023-08-19T23:24:40.825Z,3.70
2023-08-19T23:27:08.303Z,3.42
2023-08-19T23:29:35.755Z,3.40
2023-08-19T23:32:04.866Z,3.65
2023-08-19T23:34:32.469Z,3.13
2023-08-19T23:37:00.242Z,3.20
2023-08-19T23:39:27.722Z,3.60
2023-08-19T23:41:55.161Z,3.75
2023-08-19T23:44:22.637Z,3.45
2023-08-19T23:46:50.226Z,3.83
2023-08-19T23:49:17.907Z,4.30
2023-08-19T23:51:46.873Z,3.33
2023-08-19T23:54:14.522Z,3.05
2023-08-19T23:56:42.232Z,3.95
2023-08-19T23:59:09.963Z,3.47
